New Yoshino — JG5527 — position and weather

sailwx.info

Track history (hours):
 
Tides and Currents Weather Stations Pressure Air Temp Water Temp Dewpoint Dewpoint Depression Visibility Wind Speed Wind Dir Waves Ship Positions

New Yoshino

Last reported at 2016-Apr-29 00:32 UTC. Time now 2016-Apr-30 15:01 UTC.
Position N 34°58' E 140°11'.

Length 102 m; draft 6.6 m.

Type: Tanker. MMSI: 431300724.

Date/timePositionNaut miles runAvg speedWind from/ knotsBaromVisibWave heightAir tempDewpointWater temp
2016-Apr-29 00:32N 34°58' E 140°11'1311.8
2016-Apr-28 23:25N 34°50' E 139°57'1011.8
2016-Apr-28 22:33N 34°53' E 139°45'1312.7
2016-Apr-28 21:33N 35°06' E 139°44'1312.6
2016-Apr-28 20:33N 35°18' E 139°44'1211.7
2016-Apr-28 19:33N 35°30' E 139°48'2 2.2
2016-Apr-28 18:33N 35°31' E 139°46'0 0.0
2016-Apr-28 17:21N 35°31' E 139°46'0 0.0
2016-Apr-28 16:33N 35°31' E 139°46'0 0.0
2016-Apr-28 15:33N 35°31' E 139°46'0 0.0
2016-Apr-28 14:33N 35°31' E 139°46'0 0.0
2016-Apr-28 13:30N 35°31' E 139°46'0 0.0
2016-Apr-28 12:33N 35°31' E 139°46'3 3.5
2016-Apr-28 11:33N 35°29' E 139°43'1010.0
2016-Apr-28 10:33N 35°31' E 139°55'6 6.2
2016-Apr-28 09:32N 35°31' E 140°02'0 0.0
2016-Apr-28 08:32N 35°31' E 140°02'0 0.0
2016-Apr-28 07:29N 35°31' E 140°02'0 0.0
2016-Apr-28 06:29N 35°31' E 140°02'0 0.0
2016-Apr-28 05:23N 35°31' E 140°02'0 0.0
2016-Apr-28 04:29N 35°31' E 140°02'0 0.0
2016-Apr-28 03:23N 35°31' E 140°02'0 0.0
2016-Apr-28 02:32N 35°31' E 140°02'0 0.0
2016-Apr-28 01:32N 35°31' E 140°02'0 0.0
2016-Apr-28 00:32N 35°31' E 140°02'0 0.0
2016-Apr-27 23:29N 35°31' E 140°02'0 0.0
2016-Apr-27 22:32N 35°31' E 140°02'2 2.2
2016-Apr-27 21:33N 35°31' E 139°60'1 0.4
2016-Apr-27 20:04N 35°30' E 139°59'0 0.1
2016-Apr-27 19:28N 35°30' E 139°59'0 0.0
2016-Apr-27 18:04N 35°30' E 139°59'0 0.0
2016-Apr-27 17:28N 35°30' E 139°59'0 0.0
2016-Apr-27 16:28N 35°30' E 139°59'0 0.0
2016-Apr-27 15:04N 35°30' E 139°59'0 0.0
2016-Apr-27 13:16N 35°30' E 139°59'0 0.0
2016-Apr-27 12:28N 35°30' E 139°59'0 0.0
2016-Apr-27 11:22N 35°30' E 139°59'2 2.9
2016-Apr-27 10:32N 35°28' E 140°01'0 0.0
2016-Apr-27 09:32N 35°28' E 140°01'0 0.0
2016-Apr-27 08:32N 35°28' E 140°01'0 0.0
2016-Apr-27 07:26N 35°28' E 140°01'0 0.0
2016-Apr-27 06:32N 35°28' E 140°01'1 0.3
2016-Apr-27 04:17N 35°29' E 140°01'4 5.1
2016-Apr-27 03:34N 35°30' E 139°56'5 4.5
2016-Apr-27 02:31N 35°31' E 139°50'0 0.0
2016-Apr-27 01:31N 35°31' E 139°50'0 0.0
2016-Apr-27 00:31N 35°31' E 139°50'0 0.0
2016-Apr-26 23:31N 35°30' E 139°50'3 3.2
2016-Apr-26 22:34N 35°27' E 139°50'6 5.7
2016-Apr-26 21:32N 35°24' E 139°45'0 0.0
2016-Apr-26 20:32N 35°24' E 139°45'0 0.0
2016-Apr-26 19:32N 35°24' E 139°45'0 0.0
2016-Apr-26 18:32N 35°24' E 139°45'0 0.0
2016-Apr-26 17:32N 35°24' E 139°45'0 0.0
2016-Apr-26 16:32N 35°24' E 139°45'0 0.0
2016-Apr-26 15:32N 35°24' E 139°45'0 0.1
2016-Apr-26 14:32N 35°24' E 139°44'0 0.1
2016-Apr-26 13:32N 35°24' E 139°45'0 0.0
2016-Apr-26 12:32N 35°24' E 139°45'0 0.0
2016-Apr-26 11:32N 35°24' E 139°45'0 0.0
2016-Apr-26 10:32N 35°24' E 139°45'0 0.0
2016-Apr-26 09:32N 35°24' E 139°45'0 0.0
2016-Apr-26 08:32N 35°24' E 139°45'0 0.0
2016-Apr-26 07:32N 35°24' E 139°45'0 0.0
2016-Apr-26 06:32N 35°24' E 139°45'0 0.0
2016-Apr-26 05:32N 35°24' E 139°45'0 0.1
2016-Apr-26 04:32N 35°24' E 139°45'0 0.1
2016-Apr-26 03:32N 35°24' E 139°44'0 0.0
2016-Apr-26 02:31N 35°24' E 139°44'0 0.0
2016-Apr-26 01:31N 35°24' E 139°44'0 0.0
2016-Apr-26 00:32N 35°24' E 139°44'0 0.0
2016-Apr-25 23:32N 35°24' E 139°45'8 8.3
2016-Apr-25 22:33N 35°16' E 139°47'1313.4
2016-Apr-25 21:33N 35°03' E 139°44'1510.6
2016-Apr-25 20:07N 34°52' E 139°57'813.5
2016-Apr-25 19:30N 34°56' E 140°06'2612.8
2016-Apr-25 17:29N 35°12' E 140°31'1213.3
2016-Apr-25 16:33N 35°22' E 140°41'1413.5
2016-Apr-25 15:33N 35°32' E 140°50'1412.9
2016-Apr-25 14:30N 35°45' E 140°58'1313.9
2016-Apr-25 13:33N 35°58' E 140°60'79 3.3
2016-Apr-24 13:17N 37°16' E 141°08'2813.2
2016-Apr-24 11:13N 36°49' E 141°02'1013.3
2016-Apr-24 10:27N 36°40' E 140°59'1313.2
2016-Apr-24 09:30N 36°28' E 140°54'1313.1
2016-Apr-24 08:32N 36°15' E 140°49'1313.2
2016-Apr-24 07:33N 36°03' E 140°44'9 1.5
2016-Apr-24 01:33N 35°55' E 140°41'4 4.4
2016-Apr-24 00:33N 35°58' E 140°44'0 0.1
2016-Apr-23 23:09N 35°58' E 140°44'2110.7
2016-Apr-23 21:10N 35°40' E 140°58'1013.2
2016-Apr-23 20:26N 35°33' E 140°49'1314.7
2016-Apr-23 19:33N 35°22' E 140°40'1815.6
2016-Apr-23 18:26N 35°08' E 140°27'1315.2
2016-Apr-23 17:33N 34°60' E 140°15'1514.4
2016-Apr-23 16:33N 34°52' E 139°59'1212.4
2016-Apr-23 15:33N 34°55' E 139°45'1312.9
2016-Apr-23 14:33N 35°07' E 139°44'1212.2
2016-Apr-23 13:33N 35°20' E 139°43'1212.2
2016-Apr-23 12:33N 35°30' E 139°51'9 8.7
2016-Apr-23 11:31N 35°31' E 140°02'0 0.0
2016-Apr-23 10:34N 35°31' E 140°02'0 0.0
2016-Apr-23 09:22N 35°31' E 140°02'0 0.1
2016-Apr-23 08:31N 35°31' E 140°03'0 0.0
2016-Apr-23 07:31N 35°31' E 140°02'0 0.0
2016-Apr-23 06:34N 35°31' E 140°02'0 0.0
2016-Apr-23 05:33N 35°31' E 140°02'0 0.1
2016-Apr-23 04:33N 35°31' E 140°03'8 7.9
2016-Apr-23 03:33N 35°31' E 139°53'6 5.5
2016-Apr-23 02:32N 35°31' E 139°46'0 0.0
2016-Apr-23 01:32N 35°31' E 139°46'0 0.0
2016-Apr-23 00:32N 35°31' E 139°46'0 0.0
2016-Apr-22 23:32N 35°31' E 139°46'0 0.0
2016-Apr-22 22:32N 35°31' E 139°46'1 0.7
2016-Apr-22 21:33N 35°31' E 139°46'7 6.8
2016-Apr-22 20:33N 35°24' E 139°44'0 0.2
2016-Apr-22 19:33N 35°24' E 139°44'0 0.1
2016-Apr-22 18:33N 35°24' E 139°44'0 0.0
2016-Apr-22 17:33N 35°24' E 139°44'0 0.1
2016-Apr-22 16:33N 35°24' E 139°44'0 0.1
2016-Apr-22 15:33N 35°24' E 139°44'0 0.0
2016-Apr-22 14:33N 35°24' E 139°44'0 0.1
2016-Apr-22 13:33N 35°24' E 139°44'0 0.0
2016-Apr-22 12:33N 35°24' E 139°44'0 0.0
2016-Apr-22 11:33N 35°24' E 139°44'0 0.0
2016-Apr-22 10:33N 35°24' E 139°44'0 0.0
2016-Apr-22 09:33N 35°24' E 139°44'0 0.0
2016-Apr-22 08:33N 35°24' E 139°44'0 0.0
2016-Apr-22 07:33N 35°24' E 139°44'0 0.1
2016-Apr-22 06:33N 35°24' E 139°44'0 0.0
2016-Apr-22 05:33N 35°24' E 139°44'4 3.9
2016-Apr-22 04:33N 35°24' E 139°40'0 0.3
2016-Apr-22 03:33N 35°24' E 139°40'4 3.9
2016-Apr-22 02:33N 35°25' E 139°44'10 9.3
2016-Apr-22 01:30N 35°30' E 139°55'0 0.1
2016-Apr-22 00:33N 35°30' E 139°55'0 0.0
2016-Apr-21 23:32N 35°30' E 139°55'0 0.0
2016-Apr-21 22:32N 35°30' E 139°55'0 0.0
2016-Apr-21 21:24N 35°30' E 139°55'0 0.1
2016-Apr-21 20:32N 35°30' E 139°55'0 0.0
2016-Apr-21 19:33N 35°30' E 139°55'0 0.0
2016-Apr-21 18:33N 35°30' E 139°55'0 0.0
2016-Apr-21 17:34N 35°30' E 139°55'0 0.0
2016-Apr-21 16:31N 35°30' E 139°55'0 0.0
2016-Apr-21 15:32N 35°30' E 139°55'0 0.0
2016-Apr-21 14:34N 35°30' E 139°55'0 0.0
2016-Apr-21 13:33N 35°30' E 139°55'0 0.1
2016-Apr-21 12:33N 35°30' E 139°55'6 5.6
2016-Apr-21 11:26N 35°31' E 140°02'0 0.0
2016-Apr-21 10:29N 35°31' E 140°02'0 0.0
2016-Apr-21 09:29N 35°31' E 140°03'0 0.0
2016-Apr-21 08:23N 35°31' E 140°02'0 0.0
2016-Apr-21 07:32N 35°31' E 140°02'0 0.0
2016-Apr-21 06:32N 35°31' E 140°02'0 0.0
2016-Apr-21 05:29N 35°31' E 140°02'0 0.0
2016-Apr-21 04:17N 35°31' E 140°02'0 0.0
2016-Apr-21 03:29N 35°31' E 140°02'0 0.0
2016-Apr-21 02:29N 35°31' E 140°02'0 0.0
2016-Apr-21 01:32N 35°31' E 140°02'1 1.5
2016-Apr-21 00:34N 35°32' E 140°01'2 1.6
2016-Apr-20 23:30N 35°31' E 139°59'0 0.0
2016-Apr-20 22:24N 35°31' E 139°59'0 0.0
2016-Apr-20 20:33N 35°31' E 139°59'0 0.0
2016-Apr-20 19:30N 35°31' E 139°59'0 0.0
2016-Apr-20 18:33N 35°31' E 139°59'0 0.0
2016-Apr-20 17:33N 35°31' E 139°59'0 0.0
2016-Apr-20 16:33N 35°31' E 139°59'0 0.0
2016-Apr-20 15:33N 35°31' E 139°59'0 0.1
2016-Apr-20 14:30N 35°31' E 139°59'3 2.5
2016-Apr-20 13:23N 35°28' E 140°01'0 0.0
2016-Apr-20 12:32N 35°28' E 140°01'0 0.0
2016-Apr-20 11:32N 35°28' E 140°01'0 0.0
2016-Apr-20 10:26N 35°28' E 140°01'0 0.0
2016-Apr-20 09:26N 35°28' E 140°01'0 0.0
2016-Apr-20 08:32N 35°28' E 140°01'0 0.0
2016-Apr-20 07:32N 35°28' E 140°01'0 0.0
2016-Apr-20 06:32N 35°28' E 140°01'1 1.3
2016-Apr-20 05:33N 35°29' E 139°60'1 1.4
2016-Apr-20 04:28N 35°30' E 139°58'1 1.0
2016-Apr-20 03:33N 35°30' E 139°57'1312.6
2016-Apr-20 02:34N 35°22' E 139°45'1211.8
2016-Apr-20 01:33N 35°10' E 139°46'1413.8
2016-Apr-20 00:33N 34°56' E 139°44'2311.7
2016-Apr-19 22:33N 34°59' E 140°12'3012.6
2016-Apr-19 20:10N 35°20' E 140°39'913.9
2016-Apr-19 19:33N 35°27' E 140°45'2014.1
2016-Apr-19 18:09N 35°44' E 140°58'2214.1
2016-Apr-19 16:33N 36°06' E 141°00'  
Track history (hours):
 
Tides and Currents Weather Stations Pressure Air Temp Water Temp Dewpoint Dewpoint Depression Visibility Wind Speed Wind Dir Waves Ship Positions

New Yoshino

Last reported at 2016-Apr-29 00:32 UTC. Time now 2016-Apr-30 15:01 UTC.
Position N 34°58' E 140°11'.

Length 102 m; draft 6.6 m.

Type: Tanker. MMSI: 431300724.

Date/timePositionNaut miles runAvg speedWind from/ knotsBaromVisibWave heightAir tempDewpointWater temp
2016-Apr-29 00:32N 34°58' E 140°11'1311.8
2016-Apr-28 23:25N 34°50' E 139°57'1011.8
2016-Apr-28 22:33N 34°53' E 139°45'1312.7
2016-Apr-28 21:33N 35°06' E 139°44'1312.6
2016-Apr-28 20:33N 35°18' E 139°44'1211.7
2016-Apr-28 19:33N 35°30' E 139°48'2 2.2
2016-Apr-28 18:33N 35°31' E 139°46'0 0.0
2016-Apr-28 17:21N 35°31' E 139°46'0 0.0
2016-Apr-28 16:33N 35°31' E 139°46'0 0.0
2016-Apr-28 15:33N 35°31' E 139°46'0 0.0
2016-Apr-28 14:33N 35°31' E 139°46'0 0.0
2016-Apr-28 13:30N 35°31' E 139°46'0 0.0
2016-Apr-28 12:33N 35°31' E 139°46'3 3.5
2016-Apr-28 11:33N 35°29' E 139°43'1010.0
2016-Apr-28 10:33N 35°31' E 139°55'6 6.2
2016-Apr-28 09:32N 35°31' E 140°02'0 0.0
2016-Apr-28 08:32N 35°31' E 140°02'0 0.0
2016-Apr-28 07:29N 35°31' E 140°02'0 0.0
2016-Apr-28 06:29N 35°31' E 140°02'0 0.0
2016-Apr-28 05:23N 35°31' E 140°02'0 0.0
2016-Apr-28 04:29N 35°31' E 140°02'0 0.0
2016-Apr-28 03:23N 35°31' E 140°02'0 0.0
2016-Apr-28 02:32N 35°31' E 140°02'0 0.0
2016-Apr-28 01:32N 35°31' E 140°02'0 0.0
2016-Apr-28 00:32N 35°31' E 140°02'0 0.0
2016-Apr-27 23:29N 35°31' E 140°02'0 0.0
2016-Apr-27 22:32N 35°31' E 140°02'2 2.2
2016-Apr-27 21:33N 35°31' E 139°60'1 0.4
2016-Apr-27 20:04N 35°30' E 139°59'0 0.1
2016-Apr-27 19:28N 35°30' E 139°59'0 0.0
2016-Apr-27 18:04N 35°30' E 139°59'0 0.0
2016-Apr-27 17:28N 35°30' E 139°59'0 0.0
2016-Apr-27 16:28N 35°30' E 139°59'0 0.0
2016-Apr-27 15:04N 35°30' E 139°59'0 0.0
2016-Apr-27 13:16N 35°30' E 139°59'0 0.0
2016-Apr-27 12:28N 35°30' E 139°59'0 0.0
2016-Apr-27 11:22N 35°30' E 139°59'2 2.9
2016-Apr-27 10:32N 35°28' E 140°01'0 0.0
2016-Apr-27 09:32N 35°28' E 140°01'0 0.0
2016-Apr-27 08:32N 35°28' E 140°01'0 0.0
2016-Apr-27 07:26N 35°28' E 140°01'0 0.0
2016-Apr-27 06:32N 35°28' E 140°01'1 0.3
2016-Apr-27 04:17N 35°29' E 140°01'4 5.1
2016-Apr-27 03:34N 35°30' E 139°56'5 4.5
2016-Apr-27 02:31N 35°31' E 139°50'0 0.0
2016-Apr-27 01:31N 35°31' E 139°50'0 0.0
2016-Apr-27 00:31N 35°31' E 139°50'0 0.0
2016-Apr-26 23:31N 35°30' E 139°50'3 3.2
2016-Apr-26 22:34N 35°27' E 139°50'6 5.7
2016-Apr-26 21:32N 35°24' E 139°45'0 0.0
2016-Apr-26 20:32N 35°24' E 139°45'0 0.0
2016-Apr-26 19:32N 35°24' E 139°45'0 0.0
2016-Apr-26 18:32N 35°24' E 139°45'0 0.0
2016-Apr-26 17:32N 35°24' E 139°45'0 0.0
2016-Apr-26 16:32N 35°24' E 139°45'0 0.0
2016-Apr-26 15:32N 35°24' E 139°45'0 0.1
2016-Apr-26 14:32N 35°24' E 139°44'0 0.1
2016-Apr-26 13:32N 35°24' E 139°45'0 0.0
2016-Apr-26 12:32N 35°24' E 139°45'0 0.0
2016-Apr-26 11:32N 35°24' E 139°45'0 0.0
2016-Apr-26 10:32N 35°24' E 139°45'0 0.0
2016-Apr-26 09:32N 35°24' E 139°45'0 0.0
2016-Apr-26 08:32N 35°24' E 139°45'0 0.0
2016-Apr-26 07:32N 35°24' E 139°45'0 0.0
2016-Apr-26 06:32N 35°24' E 139°45'0 0.0
2016-Apr-26 05:32N 35°24' E 139°45'0 0.1
2016-Apr-26 04:32N 35°24' E 139°45'0 0.1
2016-Apr-26 03:32N 35°24' E 139°44'0 0.0
2016-Apr-26 02:31N 35°24' E 139°44'0 0.0
2016-Apr-26 01:31N 35°24' E 139°44'0 0.0
2016-Apr-26 00:32N 35°24' E 139°44'0 0.0
2016-Apr-25 23:32N 35°24' E 139°45'8 8.3
2016-Apr-25 22:33N 35°16' E 139°47'1313.4
2016-Apr-25 21:33N 35°03' E 139°44'1510.6
2016-Apr-25 20:07N 34°52' E 139°57'813.5
2016-Apr-25 19:30N 34°56' E 140°06'2612.8
2016-Apr-25 17:29N 35°12' E 140°31'1213.3
2016-Apr-25 16:33N 35°22' E 140°41'1413.5
2016-Apr-25 15:33N 35°32' E 140°50'1412.9
2016-Apr-25 14:30N 35°45' E 140°58'1313.9
2016-Apr-25 13:33N 35°58' E 140°60'79 3.3
2016-Apr-24 13:17N 37°16' E 141°08'2813.2
2016-Apr-24 11:13N 36°49' E 141°02'1013.3
2016-Apr-24 10:27N 36°40' E 140°59'1313.2
2016-Apr-24 09:30N 36°28' E 140°54'1313.1
2016-Apr-24 08:32N 36°15' E 140°49'1313.2
2016-Apr-24 07:33N 36°03' E 140°44'9 1.5
2016-Apr-24 01:33N 35°55' E 140°41'4 4.4
2016-Apr-24 00:33N 35°58' E 140°44'0 0.1
2016-Apr-23 23:09N 35°58' E 140°44'2110.7
2016-Apr-23 21:10N 35°40' E 140°58'1013.2
2016-Apr-23 20:26N 35°33' E 140°49'1314.7
2016-Apr-23 19:33N 35°22' E 140°40'1815.6
2016-Apr-23 18:26N 35°08' E 140°27'1315.2
2016-Apr-23 17:33N 34°60' E 140°15'1514.4
2016-Apr-23 16:33N 34°52' E 139°59'1212.4
2016-Apr-23 15:33N 34°55' E 139°45'1312.9
2016-Apr-23 14:33N 35°07' E 139°44'1212.2
2016-Apr-23 13:33N 35°20' E 139°43'1212.2
2016-Apr-23 12:33N 35°30' E 139°51'9 8.7
2016-Apr-23 11:31N 35°31' E 140°02'0 0.0
2016-Apr-23 10:34N 35°31' E 140°02'0 0.0
2016-Apr-23 09:22N 35°31' E 140°02'0 0.1
2016-Apr-23 08:31N 35°31' E 140°03'0 0.0
2016-Apr-23 07:31N 35°31' E 140°02'0 0.0
2016-Apr-23 06:34N 35°31' E 140°02'0 0.0
2016-Apr-23 05:33N 35°31' E 140°02'0 0.1
2016-Apr-23 04:33N 35°31' E 140°03'8 7.9
2016-Apr-23 03:33N 35°31' E 139°53'6 5.5
2016-Apr-23 02:32N 35°31' E 139°46'0 0.0
2016-Apr-23 01:32N 35°31' E 139°46'0 0.0
2016-Apr-23 00:32N 35°31' E 139°46'0 0.0
2016-Apr-22 23:32N 35°31' E 139°46'0 0.0
2016-Apr-22 22:32N 35°31' E 139°46'1 0.7
2016-Apr-22 21:33N 35°31' E 139°46'7 6.8
2016-Apr-22 20:33N 35°24' E 139°44'0 0.2
2016-Apr-22 19:33N 35°24' E 139°44'0 0.1
2016-Apr-22 18:33N 35°24' E 139°44'0 0.0
2016-Apr-22 17:33N 35°24' E 139°44'0 0.1
2016-Apr-22 16:33N 35°24' E 139°44'0 0.1
2016-Apr-22 15:33N 35°24' E 139°44'0 0.0
2016-Apr-22 14:33N 35°24' E 139°44'0 0.1
2016-Apr-22 13:33N 35°24' E 139°44'0 0.0
2016-Apr-22 12:33N 35°24' E 139°44'0 0.0
2016-Apr-22 11:33N 35°24' E 139°44'0 0.0
2016-Apr-22 10:33N 35°24' E 139°44'0 0.0
2016-Apr-22 09:33N 35°24' E 139°44'0 0.0
2016-Apr-22 08:33N 35°24' E 139°44'0 0.0
2016-Apr-22 07:33N 35°24' E 139°44'0 0.1
2016-Apr-22 06:33N 35°24' E 139°44'0 0.0
2016-Apr-22 05:33N 35°24' E 139°44'4 3.9
2016-Apr-22 04:33N 35°24' E 139°40'0 0.3
2016-Apr-22 03:33N 35°24' E 139°40'4 3.9
2016-Apr-22 02:33N 35°25' E 139°44'10 9.3
2016-Apr-22 01:30N 35°30' E 139°55'0 0.1
2016-Apr-22 00:33N 35°30' E 139°55'0 0.0
2016-Apr-21 23:32N 35°30' E 139°55'0 0.0
2016-Apr-21 22:32N 35°30' E 139°55'0 0.0
2016-Apr-21 21:24N 35°30' E 139°55'0 0.1
2016-Apr-21 20:32N 35°30' E 139°55'0 0.0
2016-Apr-21 19:33N 35°30' E 139°55'0 0.0
2016-Apr-21 18:33N 35°30' E 139°55'0 0.0
2016-Apr-21 17:34N 35°30' E 139°55'0 0.0
2016-Apr-21 16:31N 35°30' E 139°55'0 0.0
2016-Apr-21 15:32N 35°30' E 139°55'0 0.0
2016-Apr-21 14:34N 35°30' E 139°55'0 0.0
2016-Apr-21 13:33N 35°30' E 139°55'0 0.1
2016-Apr-21 12:33N 35°30' E 139°55'6 5.6
2016-Apr-21 11:26N 35°31' E 140°02'0 0.0
2016-Apr-21 10:29N 35°31' E 140°02'0 0.0
2016-Apr-21 09:29N 35°31' E 140°03'0 0.0
2016-Apr-21 08:23N 35°31' E 140°02'0 0.0
2016-Apr-21 07:32N 35°31' E 140°02'0 0.0
2016-Apr-21 06:32N 35°31' E 140°02'0 0.0
2016-Apr-21 05:29N 35°31' E 140°02'0 0.0
2016-Apr-21 04:17N 35°31' E 140°02'0 0.0
2016-Apr-21 03:29N 35°31' E 140°02'0 0.0
2016-Apr-21 02:29N 35°31' E 140°02'0 0.0
2016-Apr-21 01:32N 35°31' E 140°02'1 1.5
2016-Apr-21 00:34N 35°32' E 140°01'2 1.6
2016-Apr-20 23:30N 35°31' E 139°59'0 0.0
2016-Apr-20 22:24N 35°31' E 139°59'0 0.0
2016-Apr-20 20:33N 35°31' E 139°59'0 0.0
2016-Apr-20 19:30N 35°31' E 139°59'0 0.0
2016-Apr-20 18:33N 35°31' E 139°59'0 0.0
2016-Apr-20 17:33N 35°31' E 139°59'0 0.0
2016-Apr-20 16:33N 35°31' E 139°59'0 0.0
2016-Apr-20 15:33N 35°31' E 139°59'0 0.1
2016-Apr-20 14:30N 35°31' E 139°59'3 2.5
2016-Apr-20 13:23N 35°28' E 140°01'0 0.0
2016-Apr-20 12:32N 35°28' E 140°01'0 0.0
2016-Apr-20 11:32N 35°28' E 140°01'0 0.0
2016-Apr-20 10:26N 35°28' E 140°01'0 0.0
2016-Apr-20 09:26N 35°28' E 140°01'0 0.0
2016-Apr-20 08:32N 35°28' E 140°01'0 0.0
2016-Apr-20 07:32N 35°28' E 140°01'0 0.0
2016-Apr-20 06:32N 35°28' E 140°01'1 1.3
2016-Apr-20 05:33N 35°29' E 139°60'1 1.4
2016-Apr-20 04:28N 35°30' E 139°58'1 1.0
2016-Apr-20 03:33N 35°30' E 139°57'1312.6
2016-Apr-20 02:34N 35°22' E 139°45'1211.8
2016-Apr-20 01:33N 35°10' E 139°46'1413.8
2016-Apr-20 00:33N 34°56' E 139°44'2311.7
2016-Apr-19 22:33N 34°59' E 140°12'3012.6
2016-Apr-19 20:10N 35°20' E 140°39'913.9
2016-Apr-19 19:33N 35°27' E 140°45'2014.1
2016-Apr-19 18:09N 35°44' E 140°58'2214.1
2016-Apr-19 16:33N 36°06' E 141°00'  

Dump ship's entire track history